sensor_id;sensor_type;location;lat;lon;timestamp;P1;durP1;ratioP1;P2;durP2;ratioP2
11394;SDS011;5753;54.402;10.220;2023-02-12T00:00:42;5.68;;;3.30;;
11394;SDS011;5753;54.402;10.220;2023-02-12T00:03:09;4.65;;;3.22;;
11394;SDS011;5753;54.402;10.220;2023-02-12T00:05:36;5.78;;;3.22;;
11394;SDS011;5753;54.402;10.220;2023-02-12T00:08:03;5.15;;;3.45;;
11394;SDS011;5753;54.402;10.220;2023-02-12T00:10:29;3.75;;;2.17;;
11394;SDS011;5753;54.402;10.220;2023-02-12T00:12:55;3.72;;;2.42;;
11394;SDS011;5753;54.402;10.220;2023-02-12T00:15:22;2.80;;;1.65;;
11394;SDS011;5753;54.402;10.220;2023-02-12T00:17:48;3.22;;;2.33;;
11394;SDS011;5753;54.402;10.220;2023-02-12T00:20:14;3.35;;;2.50;;
11394;SDS011;5753;54.402;10.220;2023-02-12T00:22:40;2.65;;;1.83;;
11394;SDS011;5753;54.402;10.220;2023-02-12T00:25:06;1.73;;;1.35;;
11394;SDS011;5753;54.402;10.220;2023-02-12T00:27:34;2.80;;;1.67;;
11394;SDS011;5753;54.402;10.220;2023-02-12T00:30:00;2.40;;;1.25;;
11394;SDS011;5753;54.402;10.220;2023-02-12T00:32:26;2.88;;;2.15;;
11394;SDS011;5753;54.402;10.220;2023-02-12T00:34:53;3.28;;;2.05;;
11394;SDS011;5753;54.402;10.220;2023-02-12T00:37:19;2.85;;;1.63;;
11394;SDS011;5753;54.402;10.220;2023-02-12T00:39:45;4.47;;;1.40;;
11394;SDS011;5753;54.402;10.220;2023-02-12T00:42:11;2.88;;;1.25;;
11394;SDS011;5753;54.402;10.220;2023-02-12T00:44:37;3.75;;;1.60;;
11394;SDS011;5753;54.402;10.220;2023-02-12T00:47:04;2.83;;;1.88;;
11394;SDS011;5753;54.402;10.220;2023-02-12T00:49:30;2.17;;;1.52;;
11394;SDS011;5753;54.402;10.220;2023-02-12T00:52:03;3.72;;;2.53;;
11394;SDS011;5753;54.402;10.220;2023-02-12T00:54:30;4.20;;;3.33;;
11394;SDS011;5753;54.402;10.220;2023-02-12T00:56:56;2.67;;;2.13;;
11394;SDS011;5753;54.402;10.220;2023-02-12T00:59:23;4.55;;;3.03;;
11394;SDS011;5753;54.402;10.220;2023-02-12T01:01:50;5.30;;;2.25;;
11394;SDS011;5753;54.402;10.220;2023-02-12T01:04:18;5.45;;;2.78;;
11394;SDS011;5753;54.402;10.220;2023-02-12T01:06:44;7.07;;;2.75;;
11394;SDS011;5753;54.402;10.220;2023-02-12T01:09:10;3.30;;;2.20;;
11394;SDS011;5753;54.402;10.220;2023-02-12T01:11:37;4.50;;;2.03;;
11394;SDS011;5753;54.402;10.220;2023-02-12T01:14:04;6.57;;;2.08;;
11394;SDS011;5753;54.402;10.220;2023-02-12T01:16:31;2.60;;;2.08;;
11394;SDS011;5753;54.402;10.220;2023-02-12T01:19:00;5.00;;;3.50;;
11394;SDS011;5753;54.402;10.220;2023-02-12T01:21:28;7.65;;;3.28;;
11394;SDS011;5753;54.402;10.220;2023-02-12T01:23:56;4.78;;;2.58;;
11394;SDS011;5753;54.402;10.220;2023-02-12T01:26:23;5.60;;;3.05;;
11394;SDS011;5753;54.402;10.220;2023-02-12T01:28:53;6.63;;;3.30;;
11394;SDS011;5753;54.402;10.220;2023-02-12T01:31:23;12.50;;;2.50;;
11394;SDS011;5753;54.402;10.220;2023-02-12T01:33:52;23.45;;;2.65;;
11394;SDS011;5753;54.402;10.220;2023-02-12T01:36:19;8.25;;;2.53;;
11394;SDS011;5753;54.402;10.220;2023-02-12T01:38:46;5.70;;;4.47;;
11394;SDS011;5753;54.402;10.220;2023-02-12T01:41:14;7.90;;;5.35;;
11394;SDS011;5753;54.402;10.220;2023-02-12T01:43:43;6.38;;;3.30;;
11394;SDS011;5753;54.402;10.220;2023-02-12T01:46:11;3.83;;;2.50;;
11394;SDS011;5753;54.402;10.220;2023-02-12T01:48:42;9.30;;;4.38;;
11394;SDS011;5753;54.402;10.220;2023-02-12T01:51:13;6.82;;;3.08;;
11394;SDS011;5753;54.402;10.220;2023-02-12T01:53:45;4.22;;;1.85;;
11394;SDS011;5753;54.402;10.220;2023-02-12T01:56:17;4.35;;;2.65;;
11394;SDS011;5753;54.402;10.220;2023-02-12T01:58:44;3.58;;;2.47;;
11394;SDS011;5753;54.402;10.220;2023-02-12T02:01:17;5.20;;;4.07;;
11394;SDS011;5753;54.402;10.220;2023-02-12T02:03:47;10.55;;;2.67;;
11394;SDS011;5753;54.402;10.220;2023-02-12T02:06:21;6.32;;;3.38;;
11394;SDS011;5753;54.402;10.220;2023-02-12T02:08:54;9.02;;;3.17;;
11394;SDS011;5753;54.402;10.220;2023-02-12T02:11:21;4.15;;;1.90;;
11394;SDS011;5753;54.402;10.220;2023-02-12T02:14:06;3.53;;;2.22;;
11394;SDS011;5753;54.402;10.220;2023-02-12T02:39:05;7.30;;;4.53;;
11394;SDS011;5753;54.402;10.220;2023-02-12T02:42:00;9.20;;;2.70;;
11394;SDS011;5753;54.402;10.220;2023-02-12T02:44:36;9.45;;;4.05;;
11394;SDS011;5753;54.402;10.220;2023-02-12T02:47:24;19.33;;;3.42;;
11394;SDS011;5753;54.402;10.220;2023-02-12T02:49:58;11.10;;;2.80;;
11394;SDS011;5753;54.402;10.220;2023-02-12T02:52:38;8.33;;;3.63;;
11394;SDS011;5753;54.402;10.220;2023-02-12T02:55:12;3.85;;;2.72;;
11394;SDS011;5753;54.402;10.220;2023-02-12T02:57:46;7.63;;;3.25;;
11394;SDS011;5753;54.402;10.220;2023-02-12T03:00:14;2.75;;;2.13;;
11394;SDS011;5753;54.402;10.220;2023-02-12T03:02:49;14.82;;;4.88;;
11394;SDS011;5753;54.402;10.220;2023-02-12T03:05:41;10.77;;;5.90;;
11394;SDS011;5753;54.402;10.220;2023-02-12T03:08:13;6.28;;;3.00;;
11394;SDS011;5753;54.402;10.220;2023-02-12T03:10:54;7.90;;;1.85;;
11394;SDS011;5753;54.402;10.220;2023-02-12T03:13:27;11.32;;;2.80;;
11394;SDS011;5753;54.402;10.220;2023-02-12T03:16:03;5.65;;;3.15;;
11394;SDS011;5753;54.402;10.220;2023-02-12T03:18:55;4.60;;;2.72;;
11394;SDS011;5753;54.402;10.220;2023-02-12T03:21:27;3.55;;;1.95;;
11394;SDS011;5753;54.402;10.220;2023-02-12T03:23:59;11.27;;;2.65;;
11394;SDS011;5753;54.402;10.220;2023-02-12T03:26:58;10.43;;;3.10;;
11394;SDS011;5753;54.402;10.220;2023-02-12T03:29:30;7.18;;;2.38;;
11394;SDS011;5753;54.402;10.220;2023-02-12T03:31:59;11.40;;;3.35;;
11394;SDS011;5753;54.402;10.220;2023-02-12T03:34:49;6.88;;;2.72;;
11394;SDS011;5753;54.402;10.220;2023-02-12T03:37:18;23.58;;;2.60;;
11394;SDS011;5753;54.402;10.220;2023-02-12T03:51:32;6.20;;;4.65;;
11394;SDS011;5753;54.402;10.220;2023-02-12T03:53:35;18.13;;;3.72;;
11394;SDS011;5753;54.402;10.220;2023-02-12T03:56:03;6.80;;;3.67;;
11394;SDS011;5753;54.402;10.220;2023-02-12T03:58:34;15.68;;;5.15;;
11394;SDS011;5753;54.402;10.220;2023-02-12T04:01:02;7.93;;;3.72;;
11394;SDS011;5753;54.402;10.220;2023-02-12T04:03:29;15.05;;;4.28;;
11394;SDS011;5753;54.402;10.220;2023-02-12T04:05:56;14.73;;;3.50;;
11394;SDS011;5753;54.402;10.220;2023-02-12T04:08:22;15.90;;;4.55;;
11394;SDS011;5753;54.402;10.220;2023-02-12T04:19:42;12.55;;;3.22;;
11394;SDS011;5753;54.402;10.220;2023-02-12T04:24:51;13.35;;;5.30;;
11394;SDS011;5753;54.402;10.220;2023-02-12T04:30:23;18.48;;;5.50;;
11394;SDS011;5753;54.402;10.220;2023-02-12T04:33:07;10.40;;;4.68;;
11394;SDS011;5753;54.402;10.220;2023-02-12T04:38:29;18.70;;;6.65;;
11394;SDS011;5753;54.402;10.220;2023-02-12T04:41:00;19.13;;;7.63;;
11394;SDS011;5753;54.402;10.220;2023-02-12T04:43:30;9.98;;;3.83;;
11394;SDS011;5753;54.402;10.220;2023-02-12T04:45:59;12.88;;;3.30;;
11394;SDS011;5753;54.402;10.220;2023-02-12T04:48:26;16.33;;;3.75;;
11394;SDS011;5753;54.402;10.220;2023-02-12T04:50:52;17.67;;;4.57;;
11394;SDS011;5753;54.402;10.220;2023-02-12T04:53:19;25.48;;;10.40;;
11394;SDS011;5753;54.402;10.220;2023-02-12T04:55:45;24.05;;;9.35;;
11394;SDS011;5753;54.402;10.220;2023-02-12T04:58:13;12.50;;;5.60;;
11394;SDS011;5753;54.402;10.220;2023-02-12T05:00:39;17.83;;;4.10;;
11394;SDS011;5753;54.402;10.220;2023-02-12T05:03:05;6.75;;;4.35;;
11394;SDS011;5753;54.402;10.220;2023-02-12T05:05:32;10.15;;;4.85;;
11394;SDS011;5753;54.402;10.220;2023-02-12T05:07:58;15.40;;;5.35;;
11394;SDS011;5753;54.402;10.220;2023-02-12T05:10:24;23.25;;;6.35;;
11394;SDS011;5753;54.402;10.220;2023-02-12T05:12:51;12.25;;;4.68;;
11394;SDS011;5753;54.402;10.220;2023-02-12T05:15:18;11.18;;;4.60;;
11394;SDS011;5753;54.402;10.220;2023-02-12T05:17:44;30.15;;;8.07;;
11394;SDS011;5753;54.402;10.220;2023-02-12T05:20:11;20.77;;;5.35;;
11394;SDS011;5753;54.402;10.220;2023-02-12T05:22:38;11.48;;;3.83;;
11394;SDS011;5753;54.402;10.220;2023-02-12T05:25:04;20.17;;;5.18;;
11394;SDS011;5753;54.402;10.220;2023-02-12T05:27:31;13.90;;;3.88;;
11394;SDS011;5753;54.402;10.220;2023-02-12T05:29:57;16.80;;;4.40;;
11394;SDS011;5753;54.402;10.220;2023-02-12T05:32:23;7.07;;;3.50;;
11394;SDS011;5753;54.402;10.220;2023-02-12T05:34:49;14.60;;;5.78;;
11394;SDS011;5753;54.402;10.220;2023-02-12T05:37:15;22.50;;;5.10;;
11394;SDS011;5753;54.402;10.220;2023-02-12T05:39:42;7.75;;;4.28;;
11394;SDS011;5753;54.402;10.220;2023-02-12T05:42:08;18.95;;;4.53;;
11394;SDS011;5753;54.402;10.220;2023-02-12T05:44:34;9.52;;;4.57;;
11394;SDS011;5753;54.402;10.220;2023-02-12T05:47:00;5.63;;;3.55;;
11394;SDS011;5753;54.402;10.220;2023-02-12T05:49:26;4.80;;;3.28;;
11394;SDS011;5753;54.402;10.220;2023-02-12T05:51:53;10.43;;;3.88;;
11394;SDS011;5753;54.402;10.220;2023-02-12T05:54:19;8.27;;;3.50;;
11394;SDS011;5753;54.402;10.220;2023-02-12T05:56:45;27.65;;;7.35;;
11394;SDS011;5753;54.402;10.220;2023-02-12T05:59:16;32.40;;;4.70;;
11394;SDS011;5753;54.402;10.220;2023-02-12T06:01:45;8.77;;;3.33;;
11394;SDS011;5753;54.402;10.220;2023-02-12T06:04:13;6.40;;;4.43;;
11394;SDS011;5753;54.402;10.220;2023-02-12T06:06:41;7.03;;;3.92;;
11394;SDS011;5753;54.402;10.220;2023-02-12T06:09:09;8.43;;;3.15;;
11394;SDS011;5753;54.402;10.220;2023-02-12T06:11:36;17.42;;;3.42;;
11394;SDS011;5753;54.402;10.220;2023-02-12T06:14:03;12.65;;;7.15;;
11394;SDS011;5753;54.402;10.220;2023-02-12T06:16:31;19.55;;;6.18;;
11394;SDS011;5753;54.402;10.220;2023-02-12T06:18:59;6.07;;;3.22;;
11394;SDS011;5753;54.402;10.220;2023-02-12T06:21:29;9.73;;;3.83;;
11394;SDS011;5753;54.402;10.220;2023-02-12T06:23:56;14.05;;;6.80;;
11394;SDS011;5753;54.402;10.220;2023-02-12T06:26:23;28.90;;;10.93;;
11394;SDS011;5753;54.402;10.220;2023-02-12T06:28:49;13.90;;;5.97;;
11394;SDS011;5753;54.402;10.220;2023-02-12T06:31:20;18.92;;;8.65;;
11394;SDS011;5753;54.402;10.220;2023-02-12T06:33:48;9.73;;;6.15;;
11394;SDS011;5753;54.402;10.220;2023-02-12T06:36:15;11.63;;;5.53;;
11394;SDS011;5753;54.402;10.220;2023-02-12T06:38:42;12.57;;;5.00;;
11394;SDS011;5753;54.402;10.220;2023-02-12T06:41:09;12.57;;;7.28;;
11394;SDS011;5753;54.402;10.220;2023-02-12T06:43:35;12.00;;;6.95;;
11394;SDS011;5753;54.402;10.220;2023-02-12T06:46:02;13.88;;;5.75;;
11394;SDS011;5753;54.402;10.220;2023-02-12T06:48:29;12.00;;;6.88;;
11394;SDS011;5753;54.402;10.220;2023-02-12T06:51:02;25.63;;;6.70;;
11394;SDS011;5753;54.402;10.220;2023-02-12T06:53:32;10.50;;;5.85;;
11394;SDS011;5753;54.402;10.220;2023-02-12T06:56:00;9.60;;;4.95;;
11394;SDS011;5753;54.402;10.220;2023-02-12T06:58:27;12.55;;;8.13;;
11394;SDS011;5753;54.402;10.220;2023-02-12T07:00:54;17.17;;;6.47;;
11394;SDS011;5753;54.402;10.220;2023-02-12T07:03:20;17.20;;;6.45;;
11394;SDS011;5753;54.402;10.220;2023-02-12T07:05:47;19.05;;;8.20;;
11394;SDS011;5753;54.402;10.220;2023-02-12T07:08:13;17.77;;;7.68;;
11394;SDS011;5753;54.402;10.220;2023-02-12T07:10:40;10.93;;;6.18;;
11394;SDS011;5753;54.402;10.220;2023-02-12T07:13:06;16.23;;;7.60;;
11394;SDS011;5753;54.402;10.220;2023-02-12T07:15:32;19.15;;;6.72;;
11394;SDS011;5753;54.402;10.220;2023-02-12T07:18:02;14.20;;;6.20;;
11394;SDS011;5753;54.402;10.220;2023-02-12T07:20:28;14.63;;;7.20;;
11394;SDS011;5753;54.402;10.220;2023-02-12T07:22:54;18.02;;;9.35;;
11394;SDS011;5753;54.402;10.220;2023-02-12T07:25:20;17.55;;;6.28;;
11394;SDS011;5753;54.402;10.220;2023-02-12T07:27:46;27.70;;;8.63;;
11394;SDS011;5753;54.402;10.220;2023-02-12T07:30:13;26.58;;;9.98;;
11394;SDS011;5753;54.402;10.220;2023-02-12T07:32:39;27.48;;;10.73;;
11394;SDS011;5753;54.402;10.220;2023-02-12T07:35:05;26.48;;;8.43;;
11394;SDS011;5753;54.402;10.220;2023-02-12T07:37:32;16.90;;;6.18;;
11394;SDS011;5753;54.402;10.220;2023-02-12T07:39:58;25.42;;;9.40;;
11394;SDS011;5753;54.402;10.220;2023-02-12T07:42:25;29.42;;;11.75;;
11394;SDS011;5753;54.402;10.220;2023-02-12T07:44:51;58.25;;;36.75;;
11394;SDS011;5753;54.402;10.220;2023-02-12T07:47:17;124.93;;;80.85;;
11394;SDS011;5753;54.402;10.220;2023-02-12T07:49:43;66.18;;;30.63;;
11394;SDS011;5753;54.402;10.220;2023-02-12T07:52:09;30.10;;;10.35;;
11394;SDS011;5753;54.402;10.220;2023-02-12T07:54:36;17.27;;;9.90;;
11394;SDS011;5753;54.402;10.220;2023-02-12T07:57:02;25.05;;;8.85;;
11394;SDS011;5753;54.402;10.220;2023-02-12T07:59:28;23.60;;;8.20;;
11394;SDS011;5753;54.402;10.220;2023-02-12T08:01:54;25.05;;;10.52;;
11394;SDS011;5753;54.402;10.220;2023-02-12T08:04:22;26.92;;;8.98;;
11394;SDS011;5753;54.402;10.220;2023-02-12T08:06:50;24.27;;;8.15;;
11394;SDS011;5753;54.402;10.220;2023-02-12T08:09:19;52.70;;;12.82;;
11394;SDS011;5753;54.402;10.220;2023-02-12T08:11:50;31.38;;;11.85;;
11394;SDS011;5753;54.402;10.220;2023-02-12T08:14:18;29.83;;;11.32;;
11394;SDS011;5753;54.402;10.220;2023-02-12T08:16:45;26.60;;;11.70;;
11394;SDS011;5753;54.402;10.220;2023-02-12T08:19:12;35.03;;;10.88;;
11394;SDS011;5753;54.402;10.220;2023-02-12T08:21:39;36.83;;;12.30;;
11394;SDS011;5753;54.402;10.220;2023-02-12T08:24:06;37.47;;;12.20;;
11394;SDS011;5753;54.402;10.220;2023-02-12T08:26:36;18.70;;;7.30;;
11394;SDS011;5753;54.402;10.220;2023-02-12T08:29:10;19.08;;;7.68;;
11394;SDS011;5753;54.402;10.220;2023-02-12T08:31:40;17.45;;;12.18;;
11394;SDS011;5753;54.402;10.220;2023-02-12T08:36:42;16.65;;;10.63;;
11394;SDS011;5753;54.402;10.220;2023-02-12T08:39:10;26.10;;;9.23;;
11394;SDS011;5753;54.402;10.220;2023-02-12T08:41:37;27.15;;;11.88;;
11394;SDS011;5753;54.402;10.220;2023-02-12T08:44:06;16.85;;;7.63;;
11394;SDS011;5753;54.402;10.220;2023-02-12T08:46:34;17.73;;;10.07;;
11394;SDS011;5753;54.402;10.220;2023-02-12T08:49:11;16.77;;;8.48;;
11394;SDS011;5753;54.402;10.220;2023-02-12T08:51:40;33.40;;;10.18;;
11394;SDS011;5753;54.402;10.220;2023-02-12T08:54:10;26.42;;;10.15;;
11394;SDS011;5753;54.402;10.220;2023-02-12T08:56:38;29.67;;;11.10;;
11394;SDS011;5753;54.402;10.220;2023-02-12T08:59:06;13.80;;;7.80;;
11394;SDS011;5753;54.402;10.220;2023-02-12T09:01:34;32.97;;;10.30;;
11394;SDS011;5753;54.402;10.220;2023-02-12T09:04:02;28.52;;;10.90;;
11394;SDS011;5753;54.402;10.220;2023-02-12T09:06:30;16.90;;;8.43;;
11394;SDS011;5753;54.402;10.220;2023-02-12T09:08:57;16.30;;;9.43;;
11394;SDS011;5753;54.402;10.220;2023-02-12T09:11:24;37.53;;;11.32;;
11394;SDS011;5753;54.402;10.220;2023-02-12T09:13:55;20.35;;;9.43;;
11394;SDS011;5753;54.402;10.220;2023-02-12T09:16:24;23.25;;;12.93;;
11394;SDS011;5753;54.402;10.220;2023-02-12T09:18:51;30.60;;;13.15;;
11394;SDS011;5753;54.402;10.220;2023-02-12T09:21:17;22.10;;;12.00;;
11394;SDS011;5753;54.402;10.220;2023-02-12T09:23:43;18.42;;;7.78;;
11394;SDS011;5753;54.402;10.220;2023-02-12T09:26:11;30.52;;;10.27;;
11394;SDS011;5753;54.402;10.220;2023-02-12T09:28:39;23.83;;;10.85;;
11394;SDS011;5753;54.402;10.220;2023-02-12T09:31:07;17.85;;;8.32;;
11394;SDS011;5753;54.402;10.220;2023-02-12T09:33:38;19.38;;;7.88;;
11394;SDS011;5753;54.402;10.220;2023-02-12T09:36:09;18.38;;;8.15;;
11394;SDS011;5753;54.402;10.220;2023-02-12T09:38:38;20.73;;;9.40;;
11394;SDS011;5753;54.402;10.220;2023-02-12T09:47:04;21.83;;;6.93;;
11394;SDS011;5753;54.402;10.220;2023-02-12T09:52:54;13.45;;;5.45;;
11394;SDS011;5753;54.402;10.220;2023-02-12T09:55:24;17.15;;;6.00;;
11394;SDS011;5753;54.402;10.220;2023-02-12T09:57:55;14.27;;;5.83;;
11394;SDS011;5753;54.402;10.220;2023-02-12T10:00:29;14.93;;;7.20;;
11394;SDS011;5753;54.402;10.220;2023-02-12T10:02:59;13.70;;;6.63;;
11394;SDS011;5753;54.402;10.220;2023-02-12T10:10:50;13.38;;;6.15;;
11394;SDS011;5753;54.402;10.220;2023-02-12T10:17:04;7.20;;;4.72;;
11394;SDS011;5753;54.402;10.220;2023-02-12T10:19:52;6.85;;;4.97;;
11394;SDS011;5753;54.402;10.220;2023-02-12T10:22:33;11.45;;;3.65;;
11394;SDS011;5753;54.402;10.220;2023-02-12T10:27:49;7.63;;;3.97;;
11394;SDS011;5753;54.402;10.220;2023-02-12T10:30:22;5.07;;;2.97;;
11394;SDS011;5753;54.402;10.220;2023-02-12T10:33:15;9.73;;;5.15;;
11394;SDS011;5753;54.402;10.220;2023-02-12T10:38:37;11.40;;;4.18;;
11394;SDS011;5753;54.402;10.220;2023-02-12T10:41:09;10.13;;;3.25;;
11394;SDS011;5753;54.402;10.220;2023-02-12T10:43:37;10.75;;;3.38;;
11394;SDS011;5753;54.402;10.220;2023-02-12T10:46:03;11.00;;;2.85;;
11394;SDS011;5753;54.402;10.220;2023-02-12T10:48:37;8.15;;;4.75;;
11394;SDS011;5753;54.402;10.220;2023-02-12T10:53:42;12.52;;;3.63;;
11394;SDS011;5753;54.402;10.220;2023-02-12T10:56:17;3.55;;;3.05;;
11394;SDS011;5753;54.402;10.220;2023-02-12T11:03:59;5.22;;;3.38;;
11394;SDS011;5753;54.402;10.220;2023-02-12T11:07:19;9.65;;;2.78;;
11394;SDS011;5753;54.402;10.220;2023-02-12T11:09:42;6.80;;;3.17;;
11394;SDS011;5753;54.402;10.220;2023-02-12T11:12:52;6.05;;;2.92;;
11394;SDS011;5753;54.402;10.220;2023-02-12T11:15:11;9.43;;;5.18;;
11394;SDS011;5753;54.402;10.220;2023-02-12T11:17:53;8.80;;;3.13;;
11394;SDS011;5753;54.402;10.220;2023-02-12T11:20:24;17.63;;;4.25;;
11394;SDS011;5753;54.402;10.220;2023-02-12T11:22:58;8.23;;;5.00;;
11394;SDS011;5753;54.402;10.220;2023-02-12T11:25:29;18.48;;;6.47;;
11394;SDS011;5753;54.402;10.220;2023-02-12T11:28:16;13.88;;;5.90;;
11394;SDS011;5753;54.402;10.220;2023-02-12T11:31:30;13.23;;;4.70;;
11394;SDS011;5753;54.402;10.220;2023-02-12T11:33:38;10.80;;;4.40;;
11394;SDS011;5753;54.402;10.220;2023-02-12T11:36:26;9.07;;;3.63;;
11394;SDS011;5753;54.402;10.220;2023-02-12T11:38:55;7.32;;;4.30;;
11394;SDS011;5753;54.402;10.220;2023-02-12T11:44:20;8.82;;;3.42;;
11394;SDS011;5753;54.402;10.220;2023-02-12T11:46:54;6.60;;;4.97;;
11394;SDS011;5753;54.402;10.220;2023-02-12T11:49:30;12.45;;;5.18;;
11394;SDS011;5753;54.402;10.220;2023-02-12T11:51:59;8.50;;;4.90;;
11394;SDS011;5753;54.402;10.220;2023-02-12T11:54:29;3.35;;;2.63;;
11394;SDS011;5753;54.402;10.220;2023-02-12T11:57:04;7.05;;;3.65;;
11394;SDS011;5753;54.402;10.220;2023-02-12T11:59:32;6.90;;;2.53;;
11394;SDS011;5753;54.402;10.220;2023-02-12T12:02:03;5.05;;;3.10;;
11394;SDS011;5753;54.402;10.220;2023-02-12T12:04:37;7.38;;;3.38;;
11394;SDS011;5753;54.402;10.220;2023-02-12T12:07:07;17.65;;;6.72;;
11394;SDS011;5753;54.402;10.220;2023-02-12T12:09:48;7.30;;;3.63;;
11394;SDS011;5753;54.402;10.220;2023-02-12T12:15:00;23.88;;;5.55;;
11394;SDS011;5753;54.402;10.220;2023-02-12T12:21:19;5.80;;;2.33;;
11394;SDS011;5753;54.402;10.220;2023-02-12T12:24:05;4.43;;;2.72;;
11394;SDS011;5753;54.402;10.220;2023-02-12T12:27:15;5.25;;;2.15;;
11394;SDS011;5753;54.402;10.220;2023-02-12T12:32:57;3.72;;;2.00;;
11394;SDS011;5753;54.402;10.220;2023-02-12T12:38:33;2.03;;;1.88;;
11394;SDS011;5753;54.402;10.220;2023-02-12T12:44:16;2.22;;;1.77;;
11394;SDS011;5753;54.402;10.220;2023-02-12T12:46:57;1.75;;;1.52;;
11394;SDS011;5753;54.402;10.220;2023-02-12T13:22:55;1.35;;;0.85;;
11394;SDS011;5753;54.402;10.220;2023-02-12T13:25:48;3.15;;;2.28;;
11394;SDS011;5753;54.402;10.220;2023-02-12T13:28:32;1.40;;;1.30;;
11394;SDS011;5753;54.402;10.220;2023-02-12T13:31:08;7.13;;;1.80;;
11394;SDS011;5753;54.402;10.220;2023-02-12T13:33:40;1.65;;;0.80;;
11394;SDS011;5753;54.402;10.220;2023-02-12T13:36:11;2.30;;;0.60;;
11394;SDS011;5753;54.402;10.220;2023-02-12T13:39:23;1.15;;;0.60;;
11394;SDS011;5753;54.402;10.220;2023-02-12T13:41:30;0.73;;;0.65;;
11394;SDS011;5753;54.402;10.220;2023-02-12T13:44:15;1.00;;;1.00;;
11394;SDS011;5753;54.402;10.220;2023-02-12T13:52:38;2.35;;;1.70;;
11394;SDS011;5753;54.402;10.220;2023-02-12T14:00:58;4.10;;;3.15;;
11394;SDS011;5753;54.402;10.220;2023-02-12T14:03:26;4.43;;;3.47;;
11394;SDS011;5753;54.402;10.220;2023-02-12T14:08:43;4.07;;;2.78;;
11394;SDS011;5753;54.402;10.220;2023-02-12T14:11:29;4.10;;;2.35;;
11394;SDS011;5753;54.402;10.220;2023-02-12T14:14:02;3.15;;;2.30;;
11394;SDS011;5753;54.402;10.220;2023-02-12T14:21:59;2.88;;;2.53;;
11394;SDS011;5753;54.402;10.220;2023-02-12T14:27:15;1.50;;;1.40;;
11394;SDS011;5753;54.402;10.220;2023-02-12T14:37:56;1.45;;;1.35;;
11394;SDS011;5753;54.402;10.220;2023-02-12T14:45:58;2.95;;;1.77;;
11394;SDS011;5753;54.402;10.220;2023-02-12T14:53:58;2.72;;;2.13;;
11394;SDS011;5753;54.402;10.220;2023-02-12T14:56:26;2.28;;;1.95;;
11394;SDS011;5753;54.402;10.220;2023-02-12T14:58:52;3.28;;;3.00;;
11394;SDS011;5753;54.402;10.220;2023-02-12T15:01:29;2.63;;;2.15;;
11394;SDS011;5753;54.402;10.220;2023-02-12T15:03:58;3.17;;;1.63;;
11394;SDS011;5753;54.402;10.220;2023-02-12T15:06:37;2.42;;;2.13;;
11394;SDS011;5753;54.402;10.220;2023-02-12T15:09:20;1.25;;;1.15;;
11394;SDS011;5753;54.402;10.220;2023-02-12T15:12:02;2.90;;;2.38;;
11394;SDS011;5753;54.402;10.220;2023-02-12T15:14:30;3.17;;;1.77;;
11394;SDS011;5753;54.402;10.220;2023-02-12T15:22:20;2.50;;;1.98;;
11394;SDS011;5753;54.402;10.220;2023-02-12T15:24:48;2.70;;;1.75;;
11394;SDS011;5753;54.402;10.220;2023-02-12T15:27:15;1.30;;;1.00;;
11394;SDS011;5753;54.402;10.220;2023-02-12T15:29:44;4.25;;;1.83;;
11394;SDS011;5753;54.402;10.220;2023-02-12T15:32:23;1.35;;;1.23;;
11394;SDS011;5753;54.402;10.220;2023-02-12T15:34:52;2.08;;;0.88;;
11394;SDS011;5753;54.402;10.220;2023-02-12T15:37:24;2.00;;;1.50;;
11394;SDS011;5753;54.402;10.220;2023-02-12T15:39:57;2.67;;;1.38;;
11394;SDS011;5753;54.402;10.220;2023-02-12T15:50:26;2.28;;;1.42;;
11394;SDS011;5753;54.402;10.220;2023-02-12T15:52:53;2.67;;;1.58;;
11394;SDS011;5753;54.402;10.220;2023-02-12T15:55:31;2.15;;;1.30;;
11394;SDS011;5753;54.402;10.220;2023-02-12T15:58:00;2.33;;;1.73;;
11394;SDS011;5753;54.402;10.220;2023-02-12T16:05:48;2.20;;;1.35;;
11394;SDS011;5753;54.402;10.220;2023-02-12T16:08:16;2.72;;;2.53;;
11394;SDS011;5753;54.402;10.220;2023-02-12T16:10:46;2.30;;;1.83;;
11394;SDS011;5753;54.402;10.220;2023-02-12T16:13:30;2.90;;;2.10;;
11394;SDS011;5753;54.402;10.220;2023-02-12T16:18:36;4.40;;;2.65;;
11394;SDS011;5753;54.402;10.220;2023-02-12T16:21:05;2.35;;;2.15;;
11394;SDS011;5753;54.402;10.220;2023-02-12T16:23:46;3.92;;;2.67;;
11394;SDS011;5753;54.402;10.220;2023-02-12T16:26:18;2.90;;;2.17;;
11394;SDS011;5753;54.402;10.220;2023-02-12T16:28:47;3.65;;;2.90;;
11394;SDS011;5753;54.402;10.220;2023-02-12T16:31:16;3.67;;;2.85;;
11394;SDS011;5753;54.402;10.220;2023-02-12T16:33:47;6.63;;;2.17;;
11394;SDS011;5753;54.402;10.220;2023-02-12T16:41:54;6.90;;;5.45;;
11394;SDS011;5753;54.402;10.220;2023-02-12T16:44:20;7.22;;;4.55;;
11394;SDS011;5753;54.402;10.220;2023-02-12T16:46:52;4.85;;;3.88;;
11394;SDS011;5753;54.402;10.220;2023-02-12T16:49:21;7.13;;;5.03;;
11394;SDS011;5753;54.402;10.220;2023-02-12T16:51:50;5.85;;;4.50;;
11394;SDS011;5753;54.402;10.220;2023-02-12T16:56:57;5.78;;;3.83;;
11394;SDS011;5753;54.402;10.220;2023-02-12T16:59:24;5.30;;;3.55;;
11394;SDS011;5753;54.402;10.220;2023-02-12T17:02:02;6.35;;;3.83;;
11394;SDS011;5753;54.402;10.220;2023-02-12T17:04:34;7.20;;;4.63;;
11394;SDS011;5753;54.402;10.220;2023-02-12T17:07:00;6.63;;;4.72;;
11394;SDS011;5753;54.402;10.220;2023-02-12T17:09:26;24.48;;;4.75;;
11394;SDS011;5753;54.402;10.220;2023-02-12T17:11:54;11.55;;;4.60;;
11394;SDS011;5753;54.402;10.220;2023-02-12T17:14:21;5.57;;;2.95;;
11394;SDS011;5753;54.402;10.220;2023-02-12T17:16:47;7.13;;;3.85;;
11394;SDS011;5753;54.402;10.220;2023-02-12T17:19:13;10.77;;;5.22;;
11394;SDS011;5753;54.402;10.220;2023-02-12T17:21:41;6.70;;;4.05;;
11394;SDS011;5753;54.402;10.220;2023-02-12T17:24:28;8.73;;;4.13;;
11394;SDS011;5753;54.402;10.220;2023-02-12T17:26:58;8.52;;;5.30;;
11394;SDS011;5753;54.402;10.220;2023-02-12T17:29:25;10.85;;;5.25;;
11394;SDS011;5753;54.402;10.220;2023-02-12T17:31:52;8.75;;;4.10;;
11394;SDS011;5753;54.402;10.220;2023-02-12T17:34:19;10.93;;;4.90;;
11394;SDS011;5753;54.402;10.220;2023-02-12T17:36:46;7.55;;;5.35;;
11394;SDS011;5753;54.402;10.220;2023-02-12T17:39:14;6.20;;;5.05;;
11394;SDS011;5753;54.402;10.220;2023-02-12T17:41:41;10.23;;;5.30;;
11394;SDS011;5753;54.402;10.220;2023-02-12T17:44:08;9.35;;;4.85;;
11394;SDS011;5753;54.402;10.220;2023-02-12T17:46:37;6.85;;;4.63;;
11394;SDS011;5753;54.402;10.220;2023-02-12T17:49:03;20.77;;;14.88;;
11394;SDS011;5753;54.402;10.220;2023-02-12T17:51:29;19.88;;;16.77;;
11394;SDS011;5753;54.402;10.220;2023-02-12T17:53:55;10.05;;;7.05;;
11394;SDS011;5753;54.402;10.220;2023-02-12T17:56:22;7.05;;;6.32;;
11394;SDS011;5753;54.402;10.220;2023-02-12T17:58:49;12.68;;;6.18;;
11394;SDS011;5753;54.402;10.220;2023-02-12T18:01:17;7.95;;;6.70;;
11394;SDS011;5753;54.402;10.220;2023-02-12T18:03:45;10.90;;;7.03;;
11394;SDS011;5753;54.402;10.220;2023-02-12T18:06:11;13.07;;;7.32;;
11394;SDS011;5753;54.402;10.220;2023-02-12T18:08:40;9.50;;;5.72;;
11394;SDS011;5753;54.402;10.220;2023-02-12T18:11:08;8.48;;;6.97;;
11394;SDS011;5753;54.402;10.220;2023-02-12T18:13:35;13.80;;;8.48;;
11394;SDS011;5753;54.402;10.220;2023-02-12T18:16:09;9.27;;;6.28;;
11394;SDS011;5753;54.402;10.220;2023-02-12T18:18:35;13.40;;;7.47;;
11394;SDS011;5753;54.402;10.220;2023-02-12T18:21:11;9.93;;;5.15;;
11394;SDS011;5753;54.402;10.220;2023-02-12T18:23:39;11.02;;;6.07;;
11394;SDS011;5753;54.402;10.220;2023-02-12T18:26:06;7.85;;;6.75;;
11394;SDS011;5753;54.402;10.220;2023-02-12T18:28:34;10.45;;;8.27;;